Time;durP1;ratioP1;P1;durP2;ratioP2;P2;SDS_P1;SDS_P2;PMS_P1;PMS_P2;Temp;Humidity;BMP_temperature;BMP_pressure;BME280_temperature;BME280_humidity;BME280_pressure;Samples;Min_cycle;Max_cycle;Signal;HPM_P1;HPM_P2
2024/03/06 00:02:07;;;;;;;;;;;;;;;15.95;47.49;100576.13;4960244;29;1124;-44
2024/03/06 00:04:33;;;;;;;;;;;;;;;16.00;48.15;100574.00;4959992;29;1976;-49
2024/03/06 00:06:59;;;;;;;;;;;;;;;16.38;47.13;100574.78;4960163;29;1189;-45
2024/03/06 00:09:26;;;;;;;;;;;;;;;15.75;47.48;100566.00;4959993;29;1034;-47
2024/03/06 00:11:52;;;;;;;;;;;;;;;16.77;47.40;100571.84;4958260;29;1142;-47
2024/03/06 00:14:18;;;;;;;;;;;;;;;15.93;47.15;100567.44;4960089;29;1085;-45
2024/03/06 00:16:44;;;;;;;;;;;;;;;17.23;46.21;100564.78;4959768;29;1140;-49
2024/03/06 00:19:09;;;;;;;;;;;;;;;17.15;46.31;100561.88;4960317;29;1038;-45
2024/03/06 00:21:36;;;;;;;;;;;;;;;16.19;47.41;100562.88;4959860;29;1049;-45
2024/03/06 00:24:02;;;;;;;;;;;;;;;15.85;47.01;100562.69;4954539;29;1922;-47
2024/03/06 00:26:27;;;;;;;;;;;;;;;17.16;46.31;100558.28;4959752;29;1054;-48
2024/03/06 00:28:53;;;;;;;;;;;;;;;16.05;47.35;100560.41;4959078;28;1131;-48
2024/03/06 00:31:18;;;;;;;;;;;;;;;16.91;47.44;100560.16;4958832;29;1057;-47
2024/03/06 00:33:44;;;;;;;;;;;;;;;16.70;46.97;100566.16;4959453;29;1046;-46
2024/03/06 00:36:09;;;;;;;;;;;;;;;16.03;47.25;100556.03;4955192;29;1085;-46
2024/03/06 00:38:35;;;;;;;;;;;;;;;15.98;47.03;100566.16;4951617;29;1124;-48
2024/03/06 00:41:00;;;;;;;;;;;;;;;16.29;47.07;100573.66;4959097;29;1050;-48
2024/03/06 00:43:25;;;;;;;;;;;;;;;15.92;46.82;100566.56;4959382;29;1911;-46
2024/03/06 00:45:51;;;;;;;;;;;;;;;15.95;47.43;100571.66;4959240;29;1530;-47
2024/03/06 00:48:19;;;;;;;;;;;;;;;16.27;46.98;100568.47;4959159;29;858;-44
2024/03/06 00:50:45;;;;;;;;;;;;;;;15.76;46.91;100573.00;4958833;29;1038;-49
2024/03/06 00:53:10;;;;;;;;;;;;;;;15.52;46.32;100567.66;4959434;29;1045;-45
2024/03/06 00:55:36;;;;;;;;;;;;;;;16.28;47.40;100569.31;4958732;29;1069;-49
2024/03/06 00:58:01;;;;;;;;;;;;;;;15.75;47.07;100573.94;4959661;29;1076;-46
2024/03/06 01:00:27;;;;;;;;;;;;;;;15.49;46.50;100570.53;4953532;29;1125;-47
2024/03/06 01:02:53;;;;;;;;;;;;;;;16.84;46.30;100574.88;4952058;29;1914;-46
2024/03/06 01:05:18;;;;;;;;;;;;;;;15.79;47.30;100578.09;4953802;29;1156;-46
2024/03/06 01:07:44;;;;;;;;;;;;;;;15.68;47.76;100572.72;4951934;29;1046;-43
2024/03/06 01:10:10;;;;;;;;;;;;;;;16.34;47.03;100575.97;4953529;29;1176;-48
2024/03/06 01:12:36;;;;;;;;;;;;;;;15.66;46.96;100570.16;4945971;29;883;-45
2024/03/06 01:15:01;;;;;;;;;;;;;;;15.80;47.88;100576.25;4957827;29;1165;-49
2024/03/06 01:17:26;;;;;;;;;;;;;;;16.00;47.20;100577.50;4958931;29;1161;-45
2024/03/06 01:19:52;;;;;;;;;;;;;;;15.80;47.88;100576.25;4959036;29;1043;-49
2024/03/06 01:22:18;;;;;;;;;;;;;;;17.38;45.28;100573.38;4948376;29;1149;-43
2024/03/06 01:24:43;;;;;;;;;;;;;;;16.05;47.13;100574.50;4957171;29;1988;-47
2024/03/06 01:27:09;;;;;;;;;;;;;;;16.51;47.79;100583.53;4958621;29;1147;-50
2024/03/06 01:29:34;;;;;;;;;;;;;;;16.67;46.70;100579.69;4958604;29;1256;-45
2024/03/06 01:32:00;;;;;;;;;;;;;;;15.84;47.12;100584.84;4958733;29;1090;-45
2024/03/06 01:34:26;;;;;;;;;;;;;;;16.69;47.43;100592.84;4958717;29;1173;-46
2024/03/06 01:36:51;;;;;;;;;;;;;;;16.18;47.40;100584.22;4958666;29;898;-47
2024/03/06 01:39:17;;;;;;;;;;;;;;;15.72;47.06;100584.78;4958277;29;1141;-49
2024/03/06 01:41:49;;;;;;;;;;;;;;;16.86;46.38;100592.41;4958005;28;1144;-45
2024/03/06 01:44:15;;;;;;;;;;;;;;;15.95;46.89;100587.56;4958013;29;1977;-44
2024/03/06 01:46:40;;;;;;;;;;;;;;;15.67;46.91;100590.44;4958599;29;1074;-46
2024/03/06 01:49:06;;;;;;;;;;;;;;;17.29;45.89;100598.03;4954025;29;1180;-46
2024/03/06 01:51:32;;;;;;;;;;;;;;;16.12;47.36;100598.78;4933191;29;1058;-48
2024/03/06 01:53:58;;;;;;;;;;;;;;;15.77;46.49;100598.56;4958151;29;1076;-44
2024/03/06 01:56:23;;;;;;;;;;;;;;;16.69;47.10;100604.31;4958293;29;1128;-45
2024/03/06 01:58:49;;;;;;;;;;;;;;;16.83;46.51;100603.25;4957058;29;1065;-42
2024/03/06 02:01:14;;;;;;;;;;;;;;;15.87;47.70;100606.69;4950291;29;1098;-49
2024/03/06 02:03:41;;;;;;;;;;;;;;;15.82;46.88;100608.84;4957508;29;1907;-51
2024/03/06 02:06:08;;;;;;;;;;;;;;;17.39;45.74;100608.78;4958263;29;1089;-49
2024/03/06 02:08:33;;;;;;;;;;;;;;;16.14;47.52;100613.66;4956397;29;1671;-46
2024/03/06 02:11:02;;;;;;;;;;;;;;;15.81;46.87;100611.59;4956511;29;1157;-44
2024/03/06 02:13:27;;;;;;;;;;;;;;;16.97;46.77;100611.97;4951881;29;1133;-45
2024/03/06 02:15:53;;;;;;;;;;;;;;;16.01;47.19;100616.34;4950275;29;1157;-44
2024/03/06 02:18:18;;;;;;;;;;;;;;;16.57;47.39;100613.19;4958341;29;1053;-44
2024/03/06 02:20:45;;;;;;;;;;;;;;;16.73;46.44;100615.56;4958468;29;1078;-44
2024/03/06 02:23:11;;;;;;;;;;;;;;;16.00;47.26;100617.28;4954812;29;1911;-48
2024/03/06 02:25:36;;;;;;;;;;;;;;;15.72;46.61;100621.91;4950063;29;1074;-43
2024/03/06 02:28:02;;;;;;;;;;;;;;;17.06;46.44;100619.25;4957931;29;1165;-45
2024/03/06 02:30:27;;;;;;;;;;;;;;;16.08;47.28;100615.91;4957958;29;1054;-46
2024/03/06 02:32:53;;;;;;;;;;;;;;;15.71;46.91;100627.31;4957301;29;1168;-49
2024/03/06 02:35:18;;;;;;;;;;;;;;;15.61;46.75;100627.13;4954921;29;1069;-44
2024/03/06 02:37:44;;;;;;;;;;;;;;;16.56;46.61;100625.66;4956013;29;1136;-43
2024/03/06 02:40:10;;;;;;;;;;;;;;;15.84;46.99;100632.59;4958065;29;1077;-43
2024/03/06 02:42:38;;;;;;;;;;;;;;;16.25;47.84;100631.41;4953544;29;1899;-46
2024/03/06 02:45:04;;;;;;;;;;;;;;;16.35;46.68;100631.59;4949767;29;1062;-47
2024/03/06 02:47:30;;;;;;;;;;;;;;;15.85;47.02;100634.31;4954136;29;1136;-44
2024/03/06 02:49:55;;;;;;;;;;;;;;;15.53;46.17;100640.94;4949548;29;1042;-47
2024/03/06 02:52:21;;;;;;;;;;;;;;;16.29;46.64;100634.72;4953730;28;1591;-43
2024/03/06 02:54:46;;;;;;;;;;;;;;;15.62;47.01;100636.78;4960167;29;1517;-46
2024/03/06 02:57:12;;;;;;;;;;;;;;;15.71;47.78;100643.25;4961442;29;1081;-43
2024/03/06 02:59:39;;;;;;;;;;;;;;;16.71;46.19;100633.41;4961348;29;1169;-46
2024/03/06 03:02:05;;;;;;;;;;;;;;;15.72;47.54;100640.47;4956646;29;1049;-47
2024/03/06 03:04:31;;;;;;;;;;;;;;;17.27;45.85;100639.00;4953377;29;1973;-42
2024/03/06 03:06:56;;;;;;;;;;;;;;;16.34;46.90;100644.97;4961083;29;1089;-45
2024/03/06 03:09:23;;;;;;;;;;;;;;;15.91;47.04;100644.47;4961233;29;1061;-46
2024/03/06 03:11:48;;;;;;;;;;;;;;;15.60;46.70;100638.72;4960953;29;1061;-45
2024/03/06 03:14:14;;;;;;;;;;;;;;;16.24;47.12;100632.41;4959538;29;1604;-48
2024/03/06 03:16:41;;;;;;;;;;;;;;;16.37;46.80;100642.09;4961049;29;1078;-46
2024/03/06 03:19:08;;;;;;;;;;;;;;;15.76;46.89;100649.94;4961138;29;1104;-43
2024/03/06 03:21:33;;;;;;;;;;;;;;;17.49;45.34;100636.34;4961201;29;1125;-43
2024/03/06 03:23:59;;;;;;;;;;;;;;;16.17;47.02;100641.75;4960463;29;1966;-46
2024/03/06 03:26:24;;;;;;;;;;;;;;;15.79;47.17;100640.88;4960706;28;1105;-47
2024/03/06 03:28:50;;;;;;;;;;;;;;;15.55;46.49;100644.31;4961046;29;1245;-47
2024/03/06 03:31:15;;;;;;;;;;;;;;;16.83;46.79;100645.75;4960765;28;1256;-48
2024/03/06 03:33:41;;;;;;;;;;;;;;;16.08;46.94;100645.09;4950681;29;1180;-47
2024/03/06 03:36:07;;;;;;;;;;;;;;;15.71;46.87;100654.72;4957933;29;1195;-47
2024/03/06 03:38:35;;;;;;;;;;;;;;;15.48;46.03;100654.50;4957533;29;1351;-47
2024/03/06 03:41:03;;;;;;;;;;;;;;;16.99;45.93;100661.41;4960710;29;1109;-49
2024/03/06 03:43:29;;;;;;;;;;;;;;;15.88;47.13;100669.41;4959985;29;1910;-47
2024/03/06 03:45:55;;;;;;;;;;;;;;;15.70;47.44;100666.25;4958290;29;1075;-48
2024/03/06 03:48:20;;;;;;;;;;;;;;;16.20;46.87;100664.59;4953821;29;1268;-45
2024/03/06 03:50:46;;;;;;;;;;;;;;;16.87;46.56;100662.31;4960623;29;1093;-48
2024/03/06 03:53:11;;;;;;;;;;;;;;;18.30;43.90;100678.84;4960371;29;993;-47
2024/03/06 03:55:36;;;;;;;;;;;;;;;16.58;46.92;100683.97;4938471;29;1355;-46
2024/03/06 03:58:02;;;;;;;;;;;;;;;16.07;46.96;100689.34;4938900;29;1587;-44
2024/03/06 04:00:27;;;;;;;;;;;;;;;15.78;46.41;100684.28;4941386;29;1137;-47
2024/03/06 04:02:53;;;;;;;;;;;;;;;15.84;47.15;100683.00;4939663;29;1980;-46
2024/03/06 04:05:18;;;;;;;;;;;;;;;16.37;46.47;100682.78;4939799;29;1081;-51
2024/03/06 04:07:44;;;;;;;;;;;;;;;15.83;46.48;100683.97;4940772;29;1041;-50
2024/03/06 04:10:10;;;;;;;;;;;;;;;15.60;45.96;100692.56;4940757;29;1085;-47
2024/03/06 04:12:36;;;;;;;;;;;;;;;16.62;46.58;100682.75;4929678;29;1118;-57
2024/03/06 04:15:02;;;;;;;;;;;;;;;15.78;47.17;100697.56;4941032;29;1117;-57
2024/03/06 04:17:28;;;;;;;;;;;;;;;17.50;45.63;100695.69;4940337;29;1065;-58
2024/03/06 04:19:55;;;;;;;;;;;;;;;17.38;45.62;100698.34;4936437;29;1010;-60
2024/03/06 04:22:20;;;;;;;;;;;;;;;16.22;47.16;100711.28;4932546;29;1043;-54
2024/03/06 04:24:46;;;;;;;;;;;;;;;15.84;46.58;100704.22;4926579;29;1910;-58
2024/03/06 04:27:12;;;;;;;;;;;;;;;15.90;47.23;100706.44;4932966;29;1299;-56
2024/03/06 04:29:38;;;;;;;;;;;;;;;16.72;46.55;100704.16;4935444;29;2726;-54
2024/03/06 04:32:03;;;;;;;;;;;;;;;15.88;47.33;100711.03;4940659;29;1080;-57
2024/03/06 04:34:29;;;;;;;;;;;;;;;16.63;47.50;100721.66;4933237;29;1223;-59
2024/03/06 04:36:54;;;;;;;;;;;;;;;16.60;46.53;100729.84;4935822;29;895;-57
2024/03/06 04:39:20;;;;;;;;;;;;;;;15.84;47.37;100722.78;4933029;29;1323;-61
2024/03/06 04:41:45;;;;;;;;;;;;;;;15.74;46.32;100735.84;4936586;29;1368;-59
2024/03/06 04:44:11;;;;;;;;;;;;;;;15.67;46.58;100741.59;4940030;29;1993;-57
2024/03/06 04:46:36;;;;;;;;;;;;;;;16.91;46.05;100735.53;4940271;29;898;-55
2024/03/06 04:49:02;;;;;;;;;;;;;;;15.94;47.07;100741.56;4934540;29;1196;-55
2024/03/06 04:51:28;;;;;;;;;;;;;;;16.03;47.63;100747.09;4933186;29;1215;-47
2024/03/06 04:53:53;;;;;;;;;;;;;;;16.89;45.78;100740.13;4939344;29;1057;-49
2024/03/06 04:56:20;;;;;;;;;;;;;;;15.95;46.83;100741.44;4958892;29;1089;-46
2024/03/06 04:58:46;;;;;;;;;;;;;;;15.65;46.31;100750.59;4958206;29;2414;-47
2024/03/06 05:01:12;;;;;;;;;;;;;;;16.93;46.24;100754.88;4957830;29;1009;-46
2024/03/06 05:03:38;;;;;;;;;;;;;;;15.94;47.17;100750.38;4959111;29;1911;-48
2024/03/06 05:06:05;;;;;;;;;;;;;;;15.57;46.95;100747.63;4956207;29;1121;-49
2024/03/06 05:08:30;;;;;;;;;;;;;;;17.46;45.33;100748.28;4949065;29;1125;-46
2024/03/06 05:10:56;;;;;;;;;;;;;;;16.15;47.10;100761.28;4955931;29;1015;-45
2024/03/06 05:13:22;;;;;;;;;;;;;;;17.42;44.75;100756.59;4945427;29;1051;-45
2024/03/06 05:15:47;;;;;;;;;;;;;;;16.97;45.43;100768.75;4958625;28;1284;-48
2024/03/06 05:18:13;;;;;;;;;;;;;;;16.59;46.24;100773.28;4958078;29;1195;-43
2024/03/06 05:20:38;;;;;;;;;;;;;;;16.36;46.70;100773.16;4958583;29;1115;-50
2024/03/06 05:23:04;;;;;;;;;;;;;;;16.24;47.03;100774.88;4958497;29;1914;-45
2024/03/06 05:25:29;;;;;;;;;;;;;;;16.08;47.33;100775.94;4954974;29;1128;-49
2024/03/06 05:27:55;;;;;;;;;;;;;;;15.83;47.76;100779.47;4959089;29;1085;-45
2024/03/06 05:30:20;;;;;;;;;;;;;;;15.74;47.63;100775.63;4958677;29;2373;-45
2024/03/06 05:32:47;;;;;;;;;;;;;;;15.57;48.08;100784.72;4958481;29;1042;-48
2024/03/06 05:35:12;;;;;;;;;;;;;;;15.45;48.45;100784.63;4952326;29;1168;-47
2024/03/06 05:37:38;;;;;;;;;;;;;;;15.36;48.63;100793.19;4951513;29;991;-46
2024/03/06 05:40:07;;;;;;;;;;;;;;;15.26;48.74;100795.63;4958084;29;1117;-45
2024/03/06 05:42:33;;;;;;;;;;;;;;;15.18;48.86;100798.78;4958337;29;1192;-49
2024/03/06 05:45:04;;;;;;;;;;;;;;;16.40;46.33;100796.72;4956631;29;1977;-46
2024/03/06 05:47:31;;;;;;;;;;;;;;;17.11;44.39;100797.00;4958029;29;1045;-45
2024/03/06 05:49:57;;;;;;;;;;;;;;;16.16;46.39;100805.44;4954140;29;1078;-45
2024/03/06 05:52:22;;;;;;;;;;;;;;;15.82;47.45;100810.44;4957368;29;1049;-45
2024/03/06 05:54:48;;;;;;;;;;;;;;;15.57;48.00;100798.84;4957810;29;1134;-47
2024/03/06 05:57:15;;;;;;;;;;;;;;;15.38;48.33;100808.03;4958360;29;1057;-46
2024/03/06 05:59:40;;;;;;;;;;;;;;;15.29;48.46;100808.66;4957874;29;2108;-46
2024/03/06 06:02:06;;;;;;;;;;;;;;;16.74;45.54;100817.34;4938141;29;948;-50
2024/03/06 06:04:31;;;;;;;;;;;;;;;17.19;43.96;100817.69;4957713;29;1910;-47
2024/03/06 06:06:57;;;;;;;;;;;;;;;16.30;46.07;100814.25;4957626;29;1039;-47
2024/03/06 06:09:22;;;;;;;;;;;;;;;15.95;46.73;100801.63;4946397;29;975;-44
2024/03/06 06:11:50;;;;;;;;;;;;;;;15.62;47.38;100802.03;4957545;29;1174;-47
2024/03/06 06:14:15;;;;;;;;;;;;;;;15.47;48.13;100798.63;4955723;29;906;-49
2024/03/06 06:16:42;;;;;;;;;;;;;;;15.24;48.49;100801.03;4957628;29;1005;-49
2024/03/06 06:19:07;;;;;;;;;;;;;;;16.16;46.86;100796.66;4957770;29;947;-46
2024/03/06 06:21:33;;;;;;;;;;;;;;;17.37;43.75;100803.03;4956840;29;1057;-48
2024/03/06 06:23:58;;;;;;;;;;;;;;;16.73;44.75;100801.50;4957552;29;1898;-49
2024/03/06 06:26:24;;;;;;;;;;;;;;;16.24;46.17;100810.22;4957043;29;1042;-48
2024/03/06 06:28:49;;;;;;;;;;;;;;;15.85;46.72;100815.53;4942976;29;2421;-48
2024/03/06 06:31:15;;;;;;;;;;;;;;;15.58;47.55;100808.50;4961658;29;1046;-47
2024/03/06 06:33:41;;;;;;;;;;;;;;;15.77;47.34;100818.72;4944689;29;1019;-48
2024/03/06 06:36:06;;;;;;;;;;;;;;;17.19;44.12;100823.00;4960721;29;1104;-46
2024/03/06 06:38:32;;;;;;;;;;;;;;;16.68;44.84;100819.59;4958139;29;849;-45
2024/03/06 06:40:57;;;;;;;;;;;;;;;16.19;45.97;100822.13;4960644;29;1096;-46
2024/03/06 06:43:23;;;;;;;;;;;;;;;15.78;46.76;100827.53;4961202;29;1910;-43
2024/03/06 06:45:48;;;;;;;;;;;;;;;15.64;47.14;100823.16;4960833;29;1128;-44
2024/03/06 06:48:14;;;;;;;;;;;;;;;15.49;47.89;100825.03;4961229;29;1112;-44
2024/03/06 06:50:40;;;;;;;;;;;;;;;16.65;45.30;100823.28;4960488;29;1054;-45
2024/03/06 06:53:05;;;;;;;;;;;;;;;17.29;43.45;100823.16;4960654;29;1082;-48
2024/03/06 06:55:31;;;;;;;;;;;;;;;16.34;45.47;100826.34;4960824;29;1122;-51
2024/03/06 06:57:56;;;;;;;;;;;;;;;15.89;46.77;100814.38;4960997;29;1021;-49
2024/03/06 07:00:22;;;;;;;;;;;;;;;15.71;47.02;100821.78;4960792;29;2803;-50
2024/03/06 07:02:48;;;;;;;;;;;;;;;15.51;47.52;100823.13;4955302;29;1907;-52
2024/03/06 07:05:13;;;;;;;;;;;;;;;16.08;46.78;100836.16;4960745;29;1061;-53
2024/03/06 07:07:39;;;;;;;;;;;;;;;17.36;43.52;100827.06;4959401;29;1050;-53
2024/03/06 07:10:05;;;;;;;;;;;;;;;16.59;44.92;100834.38;4960512;29;1034;-46
2024/03/06 07:12:31;;;;;;;;;;;;;;;16.05;46.33;100846.97;4960971;29;1120;-50
2024/03/06 07:14:57;;;;;;;;;;;;;;;15.74;46.84;100844.59;4949003;29;1049;-51
2024/03/06 07:17:22;;;;;;;;;;;;;;;15.62;47.40;100848.91;4961278;29;1034;-52
2024/03/06 07:19:48;;;;;;;;;;;;;;;15.43;47.80;100848.34;4960856;29;1109;-50
2024/03/06 07:22:13;;;;;;;;;;;;;;;16.86;44.98;100849.28;4960640;29;1130;-48
2024/03/06 07:24:39;;;;;;;;;;;;;;;17.62;42.74;100841.06;4959738;29;1972;-46
2024/03/06 07:27:05;;;;;;;;;;;;;;;16.59;45.08;100843.19;4955585;29;1103;-47
2024/03/06 07:29:30;;;;;;;;;;;;;;;16.07;46.09;100843.25;4960830;29;1081;-47
2024/03/06 07:31:56;;;;;;;;;;;;;;;15.80;46.63;100841.50;4960662;29;1142;-45
2024/03/06 07:34:21;;;;;;;;;;;;;;;15.64;47.56;100836.41;4960162;29;1057;-45
2024/03/06 07:36:47;;;;;;;;;;;;;;;15.46;47.86;100839.34;4950835;29;1201;-41
2024/03/06 07:39:15;;;;;;;;;;;;;;;15.84;47.10;100848.31;4944806;29;1114;-46
2024/03/06 07:41:40;;;;;;;;;;;;;;;17.26;43.92;100848.19;4959226;29;1053;-48
2024/03/06 07:44:06;;;;;;;;;;;;;;;16.81;44.29;100846.97;4956456;29;1910;-50
2024/03/06 07:46:31;;;;;;;;;;;;;;;16.18;46.11;100844.31;4951655;29;1128;-56
2024/03/06 07:48:56;;;;;;;;;;;;;;;15.96;46.54;100843.13;4960157;29;1026;-47
2024/03/06 07:51:22;;;;;;;;;;;;;;;15.65;47.42;100843.41;4953869;29;1093;-48
2024/03/06 07:53:50;;;;;;;;;;;;;;;15.45;47.96;100840.28;4959763;29;1236;-50
2024/03/06 07:56:15;;;;;;;;;;;;;;;16.26;46.31;100844.63;4960025;29;1057;-45
2024/03/06 07:58:41;;;;;;;;;;;;;;;17.48;43.35;100844.75;4959714;29;1069;-47
2024/03/06 08:01:07;;;;;;;;;;;;;;;16.50;45.28;100843.84;4960285;29;1041;-47
2024/03/06 08:03:33;;;;;;;;;;;;;;;16.01;46.62;100846.34;4959215;29;1902;-44
2024/03/06 08:05:59;;;;;;;;;;;;;;;15.75;46.88;100844.47;4959855;29;1037;-46
2024/03/06 08:08:24;;;;;;;;;;;;;;;15.51;47.65;100847.00;4959948;29;1050;-47
2024/03/06 08:10:50;;;;;;;;;;;;;;;15.39;47.92;100846.88;4959819;29;1010;-47
2024/03/06 08:13:15;;;;;;;;;;;;;;;16.90;44.63;100853.41;4959903;29;1181;-45
2024/03/06 08:15:44;;;;;;;;;;;;;;;17.09;43.83;100863.56;4950100;29;894;-45
2024/03/06 08:18:09;;;;;;;;;;;;;;;16.18;46.10;100865.56;4956270;29;1133;-46
2024/03/06 08:20:35;;;;;;;;;;;;;;;15.88;46.68;100856.91;4959643;29;1147;-46
2024/03/06 08:23:00;;;;;;;;;;;;;;;15.61;47.63;100855.19;4959902;29;1911;-45
2024/03/06 08:25:26;;;;;;;;;;;;;;;15.47;47.90;100862.25;4959871;29;1146;-48
2024/03/06 08:27:51;;;;;;;;;;;;;;;15.50;48.12;100869.13;4958426;29;869;-46
2024/03/06 08:30:17;;;;;;;;;;;;;;;17.00;44.45;100859.75;4960051;29;1073;-50
2024/03/06 08:32:43;;;;;;;;;;;;;;;17.08;43.79;100861.00;4946659;29;1180;-49
2024/03/06 08:35:11;;;;;;;;;;;;;;;16.25;45.89;100861.50;4959353;29;1136;-47
2024/03/06 08:37:39;;;;;;;;;;;;;;;15.79;46.79;100853.09;4959127;29;1002;-47
2024/03/06 08:40:05;;;;;;;;;;;;;;;15.57;47.41;100859.84;4959138;29;852;-48
2024/03/06 08:42:32;;;;;;;;;;;;;;;15.38;48.19;100858.41;4959548;29;1145;-44
2024/03/06 08:44:58;;;;;;;;;;;;;;;16.35;46.12;100857.25;4959030;29;1967;-46
2024/03/06 08:47:23;;;;;;;;;;;;;;;17.47;43.32;100859.03;4959117;29;1041;-45
2024/03/06 08:49:49;;;;;;;;;;;;;;;16.48;45.10;100862.53;4959060;28;1101;-49
2024/03/06 08:52:15;;;;;;;;;;;;;;;16.03;46.23;100861.19;4956323;29;864;-48
2024/03/06 08:54:43;;;;;;;;;;;;;;;15.74;47.32;100853.41;4959056;29;1199;-47
2024/03/06 08:57:09;;;;;;;;;;;;;;;15.59;47.39;100855.28;4958450;29;1236;-47
2024/03/06 08:59:35;;;;;;;;;;;;;;;15.40;48.09;100853.00;4959185;29;1128;-48
2024/03/06 09:02:11;;;;;;;;;;;;;;;15.04;47.19;100747.56;4958076;29;1033;-46
2024/03/06 09:04:37;;;;;;;;;;;;;;;17.24;43.88;100868.72;4951889;29;1903;-46
2024/03/06 09:07:02;;;;;;;;;;;;;;;16.78;44.65;100863.13;4958511;29;1132;-49
2024/03/06 09:09:28;;;;;;;;;;;;;;;16.09;46.55;100859.06;4958674;29;915;-47
2024/03/06 09:11:54;;;;;;;;;;;;;;;15.77;46.90;100861.16;4946240;29;1225;-49
2024/03/06 09:14:20;;;;;;;;;;;;;;;15.57;47.68;100859.84;4956315;29;1054;-46
2024/03/06 09:16:45;;;;;;;;;;;;;;;15.38;48.03;100861.06;4957228;29;1165;-47
2024/03/06 09:19:11;;;;;;;;;;;;;;;15.23;48.17;100857.63;4947614;28;1149;-48
2024/03/06 09:21:37;;;;;;;;;;;;;;;16.73;45.00;100860.78;4957342;29;1526;-45
2024/03/06 09:24:02;;;;;;;;;;;;;;;17.41;43.17;100862.16;4958650;29;1985;-47
2024/03/06 09:26:28;;;;;;;;;;;;;;;16.39;45.63;100861.41;4955398;29;1116;-48
2024/03/06 09:28:53;;;;;;;;;;;;;;;15.95;46.79;100860.84;4950704;28;1051;-49
2024/03/06 09:31:19;;;;;;;;;;;;;;;15.66;47.53;100861.03;4957375;29;1118;-48
2024/03/06 09:33:46;;;;;;;;;;;;;;;15.50;47.59;100877.09;4958346;29;1500;-49
2024/03/06 09:36:13;;;;;;;;;;;;;;;15.35;48.04;100863.91;4958117;29;1093;-45
2024/03/06 09:38:40;;;;;;;;;;;;;;;16.48;45.84;100865.19;4948977;29;1189;-48
2024/03/06 09:41:06;;;;;;;;;;;;;;;17.49;43.29;100858.91;4957937;29;1058;-46
2024/03/06 09:43:32;;;;;;;;;;;;;;;16.50;45.06;100859.78;4941402;29;1966;-49
2024/03/06 09:45:58;;;;;;;;;;;;;;;16.01;46.53;100857.81;4957995;29;1276;-49
2024/03/06 09:48:23;;;;;;;;;;;;;;;15.72;47.25;100867.69;4944546;29;1049;-45
2024/03/06 09:50:50;;;;;;;;;;;;;;;15.64;47.39;100854.97;4953844;29;1209;-49
2024/03/06 09:53:16;;;;;;;;;;;;;;;15.32;47.91;100861.47;4951455;29;1134;-46
2024/03/06 09:55:42;;;;;;;;;;;;;;;16.71;45.13;100852.09;4958133;29;1097;-49
2024/03/06 09:58:08;;;;;;;;;;;;;;;17.35;43.32;100847.50;4957540;29;1240;-47
2024/03/06 10:00:35;;;;;;;;;;;;;;;16.37;45.70;100863.31;4958415;29;1159;-46
2024/03/06 10:03:01;;;;;;;;;;;;;;;15.93;46.76;100854.81;4957618;28;1902;-47
2024/03/06 10:05:27;;;;;;;;;;;;;;;15.67;47.24;100854.75;4957925;29;1054;-49
2024/03/06 10:07:52;;;;;;;;;;;;;;;15.46;47.59;100849.09;4957595;29;1116;-49
2024/03/06 10:10:24;;;;;;;;;;;;;;;15.71;47.56;100858.06;4957795;29;1290;-47
2024/03/06 10:12:50;;;;;;;;;;;;;;;17.20;44.16;100859.28;4957845;29;1393;-50
2024/03/06 10:15:15;;;;;;;;;;;;;;;16.92;44.18;100854.13;4951819;28;1114;-47
2024/03/06 10:17:41;;;;;;;;;;;;;;;16.26;45.91;100848.16;4952885;29;1386;-47
2024/03/06 10:20:19;;;;;;;;;;;;;;;15.84;46.97;100850.13;4957886;29;1275;-44
2024/03/06 10:22:51;;;;;;;;;;;;;;;15.65;47.41;100846.91;4957867;29;1266;-45
2024/03/06 10:25:20;;;;;;;;;;;;;;;15.52;47.90;100852.19;4958094;29;1346;-49
2024/03/06 10:27:46;;;;;;;;;;;;;;;15.66;47.76;100848.59;4951300;29;1080;-50
2024/03/06 10:30:15;;;;;;;;;;;;;;;17.17;44.00;100856.81;4957966;29;1358;-49
2024/03/06 10:32:43;;;;;;;;;;;;;;;17.09;44.01;100858.25;4940711;29;1156;-54
2024/03/06 10:35:17;;;;;;;;;;;;;;;16.23;45.73;100853.63;4958034;29;1248;-50
2024/03/06 10:37:44;;;;;;;;;;;;;;;15.86;46.72;100857.03;4957604;29;1417;-45
2024/03/06 10:40:12;;;;;;;;;;;;;;;15.67;47.42;100846.81;4937276;29;1196;-48
2024/03/06 10:42:37;;;;;;;;;;;;;;;15.49;47.59;100843.59;4957477;29;1105;-44
2024/03/06 10:45:03;;;;;;;;;;;;;;;15.60;47.43;100846.38;4940129;29;1923;-48
2024/03/06 10:47:28;;;;;;;;;;;;;;;17.07;44.26;100848.66;4940821;29;1026;-46
2024/03/06 10:49:54;;;;;;;;;;;;;;;17.06;43.87;100839.00;4957385;29;1254;-44
2024/03/06 10:52:19;;;;;;;;;;;;;;;16.28;45.99;100850.69;4957433;29;864;-46
2024/03/06 10:54:46;;;;;;;;;;;;;;;15.91;46.83;100840.78;4956757;29;1227;-46
2024/03/06 10:57:11;;;;;;;;;;;;;;;15.70;47.11;100835.97;4940511;29;1145;-43
2024/03/06 10:59:37;;;;;;;;;;;;;;;15.54;47.47;100839.69;4956055;29;1108;-45
2024/03/06 11:02:02;;;;;;;;;;;;;;;15.29;48.25;100835.16;4956779;29;1068;-43
2024/03/06 11:04:30;;;;;;;;;;;;;;;15.74;47.29;100842.78;4955294;29;1918;-44
2024/03/06 11:06:56;;;;;;;;;;;;;;;17.15;44.20;100842.81;4956711;29;1119;-45
2024/03/06 11:09:21;;;;;;;;;;;;;;;16.75;44.45;100845.59;4956962;29;1145;-45
2024/03/06 11:11:47;;;;;;;;;;;;;;;16.11;46.07;100830.63;4957162;29;1327;-45
2024/03/06 11:14:13;;;;;;;;;;;;;;;15.74;47.05;100831.31;4958786;28;1131;-49
2024/03/06 11:16:55;;;;;;;;;;;;;;;15.51;47.49;100831.09;4950325;29;1070;-47
2024/03/06 11:19:21;;;;;;;;;;;;;;;15.48;47.59;100834.78;4960843;29;1047;-45
2024/03/06 11:21:49;;;;;;;;;;;;;;;16.23;45.99;100836.88;4960224;29;1038;-47
2024/03/06 11:24:21;;;;;;;;;;;;;;;17.41;43.47;100838.22;4960624;29;1974;-49
2024/03/06 11:26:47;;;;;;;;;;;;;;;16.52;45.31;100836.63;4960842;29;1074;-47
2024/03/06 11:29:17;;;;;;;;;;;;;;;16.01;46.19;100838.38;4960377;29;874;-48
2024/03/06 11:32:02;;;;;;;;;;;;;;;15.69;47.18;100829.00;4960562;29;1394;-46
2024/03/06 11:34:30;;;;;;;;;;;;;;;15.51;47.59;100831.94;4959752;29;1065;-46
2024/03/06 11:36:58;;;;;;;;;;;;;;;15.36;48.14;100848.88;4960687;29;1094;-47
2024/03/06 11:39:24;;;;;;;;;;;;;;;16.28;45.88;100832.09;4960359;29;1089;-47
2024/03/06 11:41:50;;;;;;;;;;;;;;;17.46;43.15;100835.22;4951194;29;1146;-46
2024/03/06 11:44:16;;;;;;;;;;;;;;;16.63;44.92;100847.31;4956595;29;1919;-48
2024/03/06 11:46:45;;;;;;;;;;;;;;;16.05;46.11;100834.53;4960646;29;1109;-51
2024/03/06 11:49:20;;;;;;;;;;;;;;;15.78;47.03;100838.13;4959968;29;1035;-50
2024/03/06 11:51:46;;;;;;;;;;;;;;;15.50;47.60;100832.03;4954852;29;1045;-50
2024/03/06 11:54:12;;;;;;;;;;;;;;;15.41;47.81;100831.69;4958324;29;1168;-49
2024/03/06 11:56:40;;;;;;;;;;;;;;;16.88;44.87;100839.41;4959996;29;1140;-54
2024/03/06 11:59:07;;;;;;;;;;;;;;;17.19;43.58;100834.50;4943073;29;1178;-51
2024/03/06 12:01:33;;;;;;;;;;;;;;;16.26;45.95;100832.22;4943021;29;1070;-56
2024/03/06 12:03:58;;;;;;;;;;;;;;;15.87;46.82;100834.84;4960307;29;1981;-49
2024/03/06 12:06:24;;;;;;;;;;;;;;;15.66;47.32;100831.84;4960034;29;1117;-56
2024/03/06 12:08:49;;;;;;;;;;;;;;;15.52;47.56;100830.13;4942751;29;1318;-54
2024/03/06 12:11:15;;;;;;;;;;;;;;;15.35;47.91;100837.41;4959767;29;1101;-52
2024/03/06 12:13:43;;;;;;;;;;;;;;;16.68;45.26;100836.38;4953922;29;1150;-53
2024/03/06 12:16:09;;;;;;;;;;;;;;;17.08;43.98;100835.25;4936382;29;1311;-55
2024/03/06 12:18:35;;;;;;;;;;;;;;;16.18;46.26;100828.41;4953724;29;1070;-51
2024/03/06 12:21:02;;;;;;;;;;;;;;;15.82;46.82;100830.78;4947273;29;1279;-52
2024/03/06 12:23:28;;;;;;;;;;;;;;;15.61;47.49;100829.53;4959430;29;1918;-51
2024/03/06 12:26:03;;;;;;;;;;;;;;;15.44;47.95;100828.00;4954269;28;1170;-48
2024/03/06 12:28:28;;;;;;;;;;;;;;;16.26;46.20;100826.91;4947278;29;1033;-46
2024/03/06 12:30:54;;;;;;;;;;;;;;;17.40;43.58;100831.19;4959745;29;1049;-49
2024/03/06 12:33:20;;;;;;;;;;;;;;;16.42;45.44;100836.41;4959219;29;1078;-49
2024/03/06 12:35:45;;;;;;;;;;;;;;;15.93;46.99;100833.59;4959212;29;1069;-46
2024/03/06 12:38:14;;;;;;;;;;;;;;;15.64;47.35;100825.81;4959702;29;1082;-47
2024/03/06 12:40:41;;;;;;;;;;;;;;;15.43;47.84;100827.13;4951973;29;1145;-46
2024/03/06 12:43:06;;;;;;;;;;;;;;;15.33;48.02;100836.66;4959108;29;1918;-48